Time;durP1;ratioP1;P1;durP2;ratioP2;P2;SDS_P1;SDS_P2;PMS_P1;PMS_P2;Temp;Humidity;BMP_temperature;BMP_pressure;BME280_temperature;BME280_humidity;BME280_pressure;Samples;Min_cycle;Max_cycle;Signal;HPM_P1;HPM_P2
2021/09/06 00:00:40;;;;;;;10.93;8.63;;;;;;;;;;5027351;28;20932;-62
2021/09/06 00:03:06;;;;;;;10.87;8.73;;;;;;;;;;5024685;28;20806;-63
2021/09/06 00:05:33;;;;;;;13.87;9.83;;;;;;;;;;5034750;28;20492;-62
2021/09/06 00:07:59;;;;;;;11.80;8.50;;;;;;;;;;5021849;28;20446;-63
2021/09/06 00:10:36;;;;;;;12.93;10.17;;;;;;;;;;5014753;28;20459;-63
2021/09/06 00:13:02;;;;;;;14.80;10.20;;;;;;;;;;5013724;28;20484;-63
2021/09/06 00:15:29;;;;;;;15.67;9.77;;;;;;;;;;5014803;28;20400;-61
2021/09/06 00:17:55;;;;;;;13.63;9.40;;;;;;;;;;5021663;28;20433;-63
2021/09/06 00:20:21;;;;;;;11.60;8.50;;;;;;;;;;5032883;28;20403;-64
2021/09/06 00:22:47;;;;;;;12.60;9.20;;;;;;;;;;5013906;28;20538;-62
2021/09/06 00:25:13;;;;;;;13.63;9.77;;;;;;;;;;5014609;28;20407;-63
2021/09/06 00:27:40;;;;;;;15.53;9.63;;;;;;;;;;5019483;28;20429;-63
2021/09/06 00:30:06;;;;;;;12.97;10.50;;;;;;;;;;5034335;28;20461;-62
2021/09/06 00:32:32;;;;;;;11.80;9.53;;;;;;;;;;5023301;28;20791;-61
2021/09/06 00:34:58;;;;;;;13.73;10.20;;;;;;;;;;5021214;28;20426;-63
2021/09/06 00:37:24;;;;;;;15.10;9.80;;;;;;;;;;5032223;28;20854;-62
2021/09/06 00:39:50;;;;;;;12.80;10.03;;;;;;;;;;5034373;28;20498;-63
2021/09/06 00:42:16;;;;;;;12.87;9.63;;;;;;;;;;5032143;28;20804;-61
2021/09/06 00:44:42;;;;;;;12.00;9.27;;;;;;;;;;5033997;28;20402;-64
2021/09/06 00:47:08;;;;;;;12.83;9.13;;;;;;;;;;5030822;28;20417;-62
2021/09/06 00:49:34;;;;;;;11.83;9.33;;;;;;;;;;4994470;28;20471;-62
2021/09/06 00:52:00;;;;;;;12.07;9.80;;;;;;;;;;4994195;28;20487;-64
2021/09/06 00:54:26;;;;;;;14.67;10.20;;;;;;;;;;5012721;28;20854;-63
2021/09/06 00:56:53;;;;;;;12.20;9.47;;;;;;;;;;5013000;28;20502;-63
2021/09/06 00:59:19;;;;;;;11.07;9.47;;;;;;;;;;5013111;28;20419;-63
2021/09/06 01:01:45;;;;;;;10.67;9.10;;;;;;;;;;5014125;28;20400;-63
2021/09/06 01:04:11;;;;;;;14.07;10.70;;;;;;;;;;5000190;28;20988;-63
2021/09/06 01:06:37;;;;;;;12.90;10.03;;;;;;;;;;4992844;28;20894;-62
2021/09/06 01:09:03;;;;;;;13.50;9.50;;;;;;;;;;4998649;28;20429;-62
2021/09/06 01:11:30;;;;;;;12.23;9.40;;;;;;;;;;4994161;28;20460;-62
2021/09/06 01:13:57;;;;;;;11.93;9.40;;;;;;;;;;5005939;28;20988;-63
2021/09/06 01:16:23;;;;;;;9.80;8.40;;;;;;;;;;5013758;28;20408;-63
2021/09/06 01:18:49;;;;;;;9.70;8.70;;;;;;;;;;5022969;28;20789;-63
2021/09/06 01:21:15;;;;;;;12.17;8.80;;;;;;;;;;5031137;28;20879;-63
2021/09/06 01:23:41;;;;;;;12.63;9.80;;;;;;;;;;5021888;28;20529;-63
2021/09/06 01:26:07;;;;;;;12.10;9.50;;;;;;;;;;5033608;28;20407;-63
2021/09/06 01:28:34;;;;;;;14.20;9.20;;;;;;;;;;5030999;28;20476;-62
2021/09/06 01:31:00;;;;;;;18.40;9.83;;;;;;;;;;5015518;28;20462;-63
2021/09/06 01:33:26;;;;;;;13.43;10.60;;;;;;;;;;5024656;28;20810;-60
2021/09/06 01:35:52;;;;;;;11.40;8.70;;;;;;;;;;5013341;28;20412;-62
2021/09/06 01:38:18;;;;;;;13.17;9.07;;;;;;;;;;5017846;28;20426;-61
2021/09/06 01:40:44;;;;;;;15.73;8.67;;;;;;;;;;5033013;28;20413;-63
2021/09/06 01:43:11;;;;;;;11.50;9.43;;;;;;;;;;5024080;28;20804;-63
2021/09/06 01:45:37;;;;;;;10.30;8.53;;;;;;;;;;5033010;28;20413;-63
2021/09/06 01:48:03;;;;;;;16.57;9.37;;;;;;;;;;5025651;28;21016;-63
2021/09/06 01:50:29;;;;;;;12.37;8.40;;;;;;;;;;4993541;28;20511;-63
2021/09/06 01:52:55;;;;;;;11.87;8.93;;;;;;;;;;4993380;28;20511;-63
2021/09/06 01:55:21;;;;;;;13.80;9.00;;;;;;;;;;4993800;28;20412;-63
2021/09/06 01:57:48;;;;;;;13.40;8.87;;;;;;;;;;4993774;28;20446;-62
2021/09/06 02:00:14;;;;;;;13.80;10.50;;;;;;;;;;4993398;28;20408;-63
2021/09/06 02:02:40;;;;;;;13.60;9.40;;;;;;;;;;4993591;28;20821;-63
2021/09/06 02:05:06;;;;;;;16.23;9.63;;;;;;;;;;4993444;28;20486;-63
2021/09/06 02:07:32;;;;;;;11.37;9.27;;;;;;;;;;4993700;28;20901;-63
2021/09/06 02:09:58;;;;;;;11.90;9.77;;;;;;;;;;4998686;28;20463;-64
2021/09/06 02:12:24;;;;;;;12.20;8.10;;;;;;;;;;4993433;28;20408;-63
2021/09/06 02:14:50;;;;;;;13.73;8.70;;;;;;;;;;5026046;28;20923;-63
2021/09/06 02:17:16;;;;;;;11.93;8.53;;;;;;;;;;5030903;28;20927;-63
2021/09/06 02:19:42;;;;;;;13.00;9.70;;;;;;;;;;5031015;28;20422;-64
2021/09/06 02:22:08;;;;;;;13.30;8.90;;;;;;;;;;5032702;28;20403;-63
2021/09/06 02:24:35;;;;;;;11.33;8.40;;;;;;;;;;5030770;28;20473;-63
2021/09/06 02:27:01;;;;;;;12.10;8.60;;;;;;;;;;5032698;28;20407;-63
2021/09/06 02:29:27;;;;;;;12.40;8.20;;;;;;;;;;5006166;28;20433;-64
2021/09/06 02:31:53;;;;;;;16.60;9.40;;;;;;;;;;4993290;28;20415;-63
2021/09/06 02:34:19;;;;;;;12.50;9.10;;;;;;;;;;5015451;28;20438;-63
2021/09/06 02:36:45;;;;;;;10.83;8.10;;;;;;;;;;5032514;28;20402;-63
2021/09/06 02:39:11;;;;;;;12.40;8.83;;;;;;;;;;5003228;28;20420;-63
2021/09/06 02:41:37;;;;;;;11.03;8.00;;;;;;;;;;5015081;28;20427;-63
2021/09/06 02:44:03;;;;;;;13.93;10.20;;;;;;;;;;5013535;28;20524;-63
2021/09/06 02:46:29;;;;;;;13.03;10.27;;;;;;;;;;5016766;28;20900;-62
2021/09/06 02:48:55;;;;;;;11.17;9.10;;;;;;;;;;5023127;28;20434;-61
2021/09/06 02:51:21;;;;;;;14.33;9.00;;;;;;;;;;5036262;28;20505;-61
2021/09/06 02:53:47;;;;;;;11.07;7.90;;;;;;;;;;5034006;28;20895;-63
2021/09/06 02:56:13;;;;;;;12.07;8.70;;;;;;;;;;5036197;28;20887;-63
2021/09/06 02:58:39;;;;;;;11.80;8.93;;;;;;;;;;5033947;28;20427;-61
2021/09/06 03:01:05;;;;;;;12.23;8.43;;;;;;;;;;5035860;28;20410;-63
2021/09/06 03:03:31;;;;;;;12.43;8.63;;;;;;;;;;5034340;28;20457;-63
2021/09/06 03:05:58;;;;;;;11.80;9.03;;;;;;;;;;5035892;28;20403;-63
2021/09/06 03:08:24;;;;;;;11.47;8.50;;;;;;;;;;5031165;28;20435;-63
2021/09/06 03:10:50;;;;;;;15.10;10.10;;;;;;;;;;5014967;28;20960;-63
2021/09/06 03:13:16;;;;;;;15.00;8.50;;;;;;;;;;5014185;28;20431;-63
2021/09/06 03:15:42;;;;;;;12.80;8.70;;;;;;;;;;4993797;28;20435;-62
2021/09/06 03:18:08;;;;;;;11.43;8.73;;;;;;;;;;5002106;28;20824;-63
2021/09/06 03:20:34;;;;;;;14.63;9.47;;;;;;;;;;5015634;28;20792;-62
2021/09/06 03:23:00;;;;;;;12.63;9.43;;;;;;;;;;5016463;28;20542;-62
2021/09/06 03:25:27;;;;;;;14.83;9.63;;;;;;;;;;5008098;28;20526;-62
2021/09/06 03:27:53;;;;;;;13.67;9.70;;;;;;;;;;5015753;28;20432;-62
2021/09/06 03:30:19;;;;;;;13.73;10.03;;;;;;;;;;5031876;28;20931;-63
2021/09/06 03:32:45;;;;;;;12.27;10.37;;;;;;;;;;5035842;28;20425;-62
2021/09/06 03:35:14;;;;;;;18.87;9.63;;;;;;;;;;5033874;28;20481;-62
2021/09/06 03:37:40;;;;;;;16.23;11.13;;;;;;;;;;5035329;28;20403;-61
2021/09/06 03:40:06;;;;;;;13.77;9.17;;;;;;;;;;5003488;28;20494;-63
2021/09/06 03:42:32;;;;;;;13.00;9.80;;;;;;;;;;4995872;28;20460;-63
2021/09/06 03:44:58;;;;;;;12.47;10.13;;;;;;;;;;5023001;28;20434;-63
2021/09/06 03:47:24;;;;;;;13.40;10.13;;;;;;;;;;5035273;28;20775;-63
2021/09/06 03:49:50;;;;;;;13.43;9.00;;;;;;;;;;5008387;28;20468;-63
2021/09/06 03:52:16;;;;;;;13.43;10.40;;;;;;;;;;4995030;28;20416;-64
2021/09/06 03:54:42;;;;;;;16.07;10.43;;;;;;;;;;5017569;28;20960;-63
2021/09/06 03:57:08;;;;;;;13.20;11.10;;;;;;;;;;5033174;28;20453;-63
2021/09/06 03:59:34;;;;;;;16.13;11.00;;;;;;;;;;5022965;28;20435;-63
2021/09/06 04:02:00;;;;;;;15.93;10.60;;;;;;;;;;5014961;28;20431;-63
2021/09/06 04:04:26;;;;;;;17.30;10.27;;;;;;;;;;5005736;28;20456;-63
2021/09/06 04:06:52;;;;;;;15.53;10.00;;;;;;;;;;4995344;28;20401;-63
2021/09/06 04:09:18;;;;;;;13.27;9.73;;;;;;;;;;5009384;28;20426;-63
2021/09/06 04:11:44;;;;;;;12.63;8.80;;;;;;;;;;5034735;28;20493;-63
2021/09/06 04:14:15;;;;;;;13.23;9.80;;;;;;;;;;5032738;28;20442;-63
2021/09/06 04:16:41;;;;;;;14.57;9.60;;;;;;;;;;5034862;28;20470;-63
2021/09/06 04:19:07;;;;;;;11.97;9.07;;;;;;;;;;5006703;28;20456;-63
2021/09/06 04:21:33;;;;;;;12.77;8.57;;;;;;;;;;4995105;28;20484;-63
2021/09/06 04:23:59;;;;;;;12.80;9.20;;;;;;;;;;5006517;28;20531;-63
2021/09/06 04:26:25;;;;;;;13.23;8.90;;;;;;;;;;5034424;28;20429;-63
2021/09/06 04:28:51;;;;;;;15.17;9.43;;;;;;;;;;5032337;28;21202;-63
2021/09/06 04:31:18;;;;;;;18.87;11.87;;;;;;;;;;5034205;28;20489;-63
2021/09/06 04:33:44;;;;;;;16.43;8.60;;;;;;;;;;5032333;28;20510;-63
2021/09/06 04:36:10;;;;;;;16.03;9.70;;;;;;;;;;5034335;28;20399;-63
2021/09/06 04:38:36;;;;;;;12.03;9.37;;;;;;;;;;5032602;28;20399;-64
2021/09/06 04:41:02;;;;;;;12.20;9.27;;;;;;;;;;5033749;28;20435;-63
2021/09/06 04:43:28;;;;;;;12.97;9.60;;;;;;;;;;5033855;28;20422;-63
2021/09/06 04:45:54;;;;;;;10.30;8.27;;;;;;;;;;5013882;28;20420;-63
2021/09/06 04:48:20;;;;;;;11.80;8.87;;;;;;;;;;5014173;28;20396;-63
2021/09/06 04:50:46;;;;;;;12.27;8.50;;;;;;;;;;4996192;28;20460;-63
2021/09/06 04:53:12;;;;;;;13.60;8.60;;;;;;;;;;4994313;28;20953;-63
2021/09/06 04:55:39;;;;;;;10.37;7.80;;;;;;;;;;5025742;28;20434;-63
2021/09/06 04:58:05;;;;;;;12.07;7.90;;;;;;;;;;5033885;28;20802;-63
2021/09/06 05:00:31;;;;;;;12.20;9.27;;;;;;;;;;5031740;28;20431;-63
2021/09/06 05:02:57;;;;;;;12.20;8.53;;;;;;;;;;5022048;28;20458;-63
2021/09/06 05:05:23;;;;;;;13.27;9.30;;;;;;;;;;5025738;28;20437;-63
2021/09/06 05:07:49;;;;;;;12.57;8.40;;;;;;;;;;5033674;28;20937;-63
2021/09/06 05:10:15;;;;;;;13.23;8.90;;;;;;;;;;4998908;28;20655;-63
2021/09/06 05:12:41;;;;;;;14.37;9.50;;;;;;;;;;4994335;28;20512;-63
2021/09/06 05:15:08;;;;;;;21.47;9.47;;;;;;;;;;5003022;28;20478;-62
2021/09/06 05:17:34;;;;;;;12.27;8.97;;;;;;;;;;5013623;28;20922;-63
2021/09/06 05:20:00;;;;;;;19.73;9.07;;;;;;;;;;5012724;28;20423;-63
2021/09/06 05:22:26;;;;;;;12.77;8.50;;;;;;;;;;5013864;28;20810;-63
2021/09/06 05:24:54;;;;;;;19.23;9.10;;;;;;;;;;5004699;28;20444;-63
2021/09/06 05:27:21;;;;;;;17.03;9.23;;;;;;;;;;4993956;28;20405;-63
2021/09/06 05:29:47;;;;;;;12.67;9.60;;;;;;;;;;5000413;28;20495;-63
2021/09/06 05:32:13;;;;;;;15.83;9.30;;;;;;;;;;5013417;28;20418;-62
2021/09/06 05:34:39;;;;;;;16.77;9.63;;;;;;;;;;5007631;28;20512;-63
2021/09/06 05:37:05;;;;;;;15.37;10.50;;;;;;;;;;4993809;28;20472;-63
2021/09/06 05:39:31;;;;;;;19.00;9.50;;;;;;;;;;5001198;28;20843;-63
2021/09/06 05:41:57;;;;;;;15.47;8.60;;;;;;;;;;5033030;28;20430;-63
2021/09/06 05:44:23;;;;;;;13.47;8.87;;;;;;;;;;5031073;28;20455;-62
2021/09/06 05:46:49;;;;;;;15.40;9.33;;;;;;;;;;5033099;28;20400;-63
2021/09/06 05:49:16;;;;;;;14.83;9.33;;;;;;;;;;5028855;28;20414;-64
2021/09/06 05:51:42;;;;;;;13.43;8.53;;;;;;;;;;4993839;28;20471;-64
2021/09/06 05:54:08;;;;;;;12.43;8.43;;;;;;;;;;4994298;28;20511;-63
2021/09/06 05:56:34;;;;;;;11.63;9.20;;;;;;;;;;4993545;28;20409;-63
2021/09/06 05:59:00;;;;;;;15.73;10.20;;;;;;;;;;4993559;28;20882;-63
2021/09/06 06:01:26;;;;;;;15.50;8.93;;;;;;;;;;4993476;28;20468;-63
2021/09/06 06:03:52;;;;;;;20.63;9.73;;;;;;;;;;4993241;28;20494;-63
2021/09/06 06:06:18;;;;;;;22.13;10.70;;;;;;;;;;5027444;28;20443;-63
2021/09/06 06:08:44;;;;;;;34.90;13.70;;;;;;;;;;5033007;28;20403;-63
2021/09/06 06:11:10;;;;;;;28.43;13.00;;;;;;;;;;5010439;28;20470;-63
2021/09/06 06:13:36;;;;;;;27.70;11.57;;;;;;;;;;5012988;28;20439;-63
2021/09/06 06:16:02;;;;;;;23.90;12.33;;;;;;;;;;5029422;28;20428;-63
2021/09/06 06:18:28;;;;;;;21.07;10.37;;;;;;;;;;5036698;28;20486;-63
2021/09/06 06:20:54;;;;;;;29.33;11.40;;;;;;;;;;5017925;28;20459;-63
2021/09/06 06:23:20;;;;;;;23.50;11.47;;;;;;;;;;5016070;28;20959;-63
2021/09/06 06:25:46;;;;;;;25.20;10.27;;;;;;;;;;5019398;28;20510;-64
2021/09/06 06:28:12;;;;;;;20.87;12.23;;;;;;;;;;5003089;28;20431;-64
2021/09/06 06:30:38;;;;;;;19.03;10.80;;;;;;;;;;5000413;28;20466;-63
2021/09/06 06:33:05;;;;;;;20.00;11.50;;;;;;;;;;5014282;28;20850;-63
2021/09/06 06:35:31;;;;;;;20.53;12.40;;;;;;;;;;5019795;28;20431;-63
2021/09/06 06:37:57;;;;;;;16.10;9.90;;;;;;;;;;5016163;28;20849;-63
2021/09/06 06:40:23;;;;;;;17.60;10.20;;;;;;;;;;5019849;28;20434;-63
2021/09/06 06:42:49;;;;;;;15.60;9.80;;;;;;;;;;5015559;28;20435;-63
2021/09/06 06:45:15;;;;;;;16.30;9.43;;;;;;;;;;5016708;28;20428;-63
2021/09/06 06:47:41;;;;;;;15.80;9.37;;;;;;;;;;5016149;28;20794;-63
2021/09/06 06:50:07;;;;;;;16.10;9.63;;;;;;;;;;5020399;28;20549;-64
2021/09/06 06:52:35;;;;;;;14.43;9.87;;;;;;;;;;5013741;28;20513;-63
2021/09/06 06:55:01;;;;;;;11.33;8.27;;;;;;;;;;5019757;28;20434;-63
2021/09/06 06:57:27;;;;;;;11.17;7.97;;;;;;;;;;5035691;28;20398;-63
2021/09/06 06:59:53;;;;;;;10.40;7.73;;;;;;;;;;5017039;28;20485;-64
2021/09/06 07:02:19;;;;;;;10.70;8.23;;;;;;;;;;5008982;28;20440;-64
2021/09/06 07:04:45;;;;;;;11.87;8.23;;;;;;;;;;5016658;28;20431;-64
2021/09/06 07:07:11;;;;;;;13.37;9.47;;;;;;;;;;4998944;28;20496;-63
2021/09/06 07:09:37;;;;;;;12.57;7.90;;;;;;;;;;5012520;28;20522;-63
2021/09/06 07:12:03;;;;;;;16.23;11.30;;;;;;;;;;5011932;28;21055;-64
2021/09/06 07:14:29;;;;;;;14.07;10.50;;;;;;;;;;5012363;28;20443;-64
2021/09/06 07:16:55;;;;;;;14.17;10.17;;;;;;;;;;5015533;28;20440;-63
2021/09/06 07:19:21;;;;;;;17.80;12.30;;;;;;;;;;5012881;28;20416;-64
2021/09/06 07:21:47;;;;;;;15.20;10.70;;;;;;;;;;4995383;28;20439;-62
2021/09/06 07:24:13;;;;;;;15.80;10.87;;;;;;;;;;5013636;28;20439;-63
2021/09/06 07:26:40;;;;;;;15.30;11.03;;;;;;;;;;5007792;28;20424;-63
2021/09/06 07:29:06;;;;;;;18.07;11.50;;;;;;;;;;5007385;28;20437;-62
2021/09/06 07:31:32;;;;;;;17.20;12.33;;;;;;;;;;5011187;28;20463;-61
2021/09/06 07:33:58;;;;;;;18.00;12.00;;;;;;;;;;5014453;28;20423;-62
2021/09/06 07:36:24;;;;;;;16.07;13.43;;;;;;;;;;5012719;28;20455;-62
2021/09/06 07:38:50;;;;;;;19.87;13.60;;;;;;;;;;5014529;28;20415;-62
2021/09/06 07:41:16;;;;;;;18.50;12.50;;;;;;;;;;4996260;28;20443;-62
2021/09/06 07:43:44;;;;;;;19.57;11.70;;;;;;;;;;4995474;28;20844;-62
2021/09/06 07:46:10;;;;;;;14.80;9.73;;;;;;;;;;5008374;28;21004;-62
2021/09/06 07:48:36;;;;;;;14.80;10.90;;;;;;;;;;5013982;28;20437;-62
2021/09/06 07:51:02;;;;;;;18.33;10.50;;;;;;;;;;4993938;28;20463;-62
2021/09/06 07:53:28;;;;;;;13.80;10.20;;;;;;;;;;5012192;28;20514;-62
2021/09/06 07:55:54;;;;;;;17.33;11.97;;;;;;;;;;5002201;28;20483;-62
2021/09/06 07:58:20;;;;;;;19.40;10.50;;;;;;;;;;5016263;28;20518;-62
2021/09/06 08:00:46;;;;;;;14.77;10.43;;;;;;;;;;5010793;28;20437;-63
2021/09/06 08:03:12;;;;;;;13.07;9.73;;;;;;;;;;5012248;28;20444;-63
2021/09/06 08:05:39;;;;;;;16.50;10.30;;;;;;;;;;5011212;28;20514;-63
2021/09/06 08:08:05;;;;;;;13.93;9.43;;;;;;;;;;5013544;28;20424;-62
2021/09/06 08:10:31;;;;;;;16.77;8.77;;;;;;;;;;5015614;28;20454;-63
2021/09/06 08:12:57;;;;;;;10.83;8.37;;;;;;;;;;5012198;28;20455;-63
2021/09/06 08:15:25;;;;;;;13.60;10.23;;;;;;;;;;5011537;28;20430;-63
2021/09/06 08:17:52;;;;;;;12.10;8.83;;;;;;;;;;5013441;28;20407;-63
2021/09/06 08:20:18;;;;;;;16.90;9.97;;;;;;;;;;5012318;28;20779;-63
2021/09/06 08:22:45;;;;;;;15.47;9.57;;;;;;;;;;5007406;28;20795;-63
2021/09/06 08:25:11;;;;;;;16.90;10.30;;;;;;;;;;5006058;28;20772;-63
2021/09/06 08:27:39;;;;;;;14.57;9.73;;;;;;;;;;5013935;28;20503;-63
2021/09/06 08:30:06;;;;;;;12.57;8.53;;;;;;;;;;5009920;28;20467;-63
2021/09/06 08:32:32;;;;;;;11.20;8.57;;;;;;;;;;5007668;28;20839;-62
2021/09/06 08:34:58;;;;;;;12.73;8.50;;;;;;;;;;5012892;28;20510;-63
2021/09/06 08:37:25;;;;;;;12.40;9.13;;;;;;;;;;5025241;28;20420;-63
2021/09/06 08:39:51;;;;;;;14.40;10.07;;;;;;;;;;5011165;28;20420;-64
2021/09/06 08:42:18;;;;;;;12.80;9.90;;;;;;;;;;5026048;28;20502;-64
2021/09/06 08:44:44;;;;;;;14.27;8.90;;;;;;;;;;5012836;28;20856;-63
2021/09/06 08:47:12;;;;;;;15.83;8.40;;;;;;;;;;5011218;28;20427;-63
2021/09/06 08:49:38;;;;;;;10.77;8.20;;;;;;;;;;5009553;28;20432;-63
2021/09/06 08:52:04;;;;;;;13.57;8.57;;;;;;;;;;5023556;28;21018;-64
2021/09/06 08:54:30;;;;;;;14.83;8.30;;;;;;;;;;5012176;28;20555;-62
2021/09/06 08:56:56;;;;;;;9.87;7.80;;;;;;;;;;5011748;28;20498;-63
2021/09/06 08:59:22;;;;;;;15.60;9.60;;;;;;;;;;5010555;28;20427;-63
2021/09/06 09:01:51;;;;;;;11.50;8.90;;;;;;;;;;5006572;28;20515;-63
2021/09/06 09:04:27;;;;;;;9.57;7.00;;;;;;;;;;5008817;28;20799;-63
2021/09/06 09:06:54;;;;;;;14.73;8.40;;;;;;;;;;5012315;28;20429;-63
2021/09/06 09:09:23;;;;;;;20.83;8.80;;;;;;;;;;5012098;28;20439;-64
2021/09/06 09:12:06;;;;;;;11.93;8.37;;;;;;;;;;5015820;28;20550;-65
2021/09/06 09:14:33;;;;;;;13.70;7.97;;;;;;;;;;5006683;28;20791;-64
2021/09/06 09:16:59;;;;;;;9.83;7.90;;;;;;;;;;5010507;28;20474;-63
2021/09/06 09:19:25;;;;;;;11.47;7.53;;;;;;;;;;5003223;28;20455;-63
2021/09/06 09:21:52;;;;;;;11.10;8.27;;;;;;;;;;5010081;28;20489;-63
2021/09/06 09:24:22;;;;;;;10.77;8.13;;;;;;;;;;5010800;28;20633;-63
2021/09/06 09:26:52;;;;;;;11.17;7.97;;;;;;;;;;5011151;28;20482;-63
2021/09/06 09:29:19;;;;;;;11.47;8.60;;;;;;;;;;5005631;28;20428;-63
2021/09/06 09:31:52;;;;;;;10.20;7.33;;;;;;;;;;5009971;28;20469;-63
2021/09/06 09:34:18;;;;;;;12.00;8.53;;;;;;;;;;5011306;28;20538;-63
2021/09/06 09:36:44;;;;;;;10.87;7.50;;;;;;;;;;5008385;28;20434;-63
2021/09/06 09:39:12;;;;;;;10.13;7.43;;;;;;;;;;5007516;28;20452;-64
2021/09/06 09:41:39;;;;;;;8.73;7.83;;;;;;;;;;5009900;28;20524;-64
2021/09/06 09:44:09;;;;;;;11.47;8.37;;;;;;;;;;5009770;28;20553;-64
2021/09/06 09:46:35;;;;;;;9.53;7.40;;;;;;;;;;5009679;28;20876;-63
2021/09/06 09:49:10;;;;;;;12.43;8.40;;;;;;;;;;5004861;28;20422;-63
2021/09/06 09:51:36;;;;;;;10.20;8.20;;;;;;;;;;5012492;28;20951;-62
2021/09/06 09:54:03;;;;;;;10.80;8.27;;;;;;;;;;5007648;28;20459;-63
2021/09/06 09:56:30;;;;;;;10.33;7.40;;;;;;;;;;5013658;28;20419;-63
2021/09/06 09:58:56;;;;;;;14.57;10.93;;;;;;;;;;5012124;28;20561;-63
2021/09/06 10:01:22;;;;;;;10.70;9.17;;;;;;;;;;5011131;28;20490;-62
2021/09/06 10:03:48;;;;;;;14.93;8.93;;;;;;;;;;5011074;28;20476;-66
2021/09/06 10:06:14;;;;;;;11.37;9.13;;;;;;;;;;5009221;28;20518;-63
2021/09/06 10:08:41;;;;;;;13.07;8.33;;;;;;;;;;5011597;28;20507;-63
2021/09/06 10:11:13;;;;;;;9.83;8.60;;;;;;;;;;4998599;28;20548;-62
2021/09/06 10:13:40;;;;;;;15.03;9.20;;;;;;;;;;5017759;28;20447;-63
2021/09/06 10:16:07;;;;;;;13.03;8.90;;;;;;;;;;5009456;28;20425;-62
2021/09/06 10:18:40;;;;;;;15.33;10.93;;;;;;;;;;5000296;28;20832;-63
2021/09/06 10:21:14;;;;;;;13.43;9.80;;;;;;;;;;5014055;28;20925;-62
2021/09/06 10:23:47;;;;;;;13.17;9.47;;;;;;;;;;5009678;28;20454;-63
2021/09/06 10:26:13;;;;;;;12.80;9.80;;;;;;;;;;5013742;28;20981;-63
2021/09/06 10:28:40;;;;;;;12.30;9.67;;;;;;;;;;5014335;28;20465;-64
2021/09/06 10:31:06;;;;;;;15.33;10.40;;;;;;;;;;5010374;28;20459;-63
2021/09/06 10:33:36;;;;;;;13.40;9.20;;;;;;;;;;5006725;28;20455;-63
2021/09/06 10:36:31;;;;;;;13.17;9.80;;;;;;;;;;4990787;28;20432;-61
2021/09/06 10:39:02;;;;;;;10.90;8.40;;;;;;;;;;5000050;28;20768;-63
2021/09/06 10:41:28;;;;;;;19.37;9.60;;;;;;;;;;5013579;28;20507;-62
2021/09/06 10:43:55;;;;;;;10.90;8.97;;;;;;;;;;5008965;28;20451;-62
2021/09/06 10:46:22;;;;;;;12.70;9.33;;;;;;;;;;5014971;28;20449;-62
2021/09/06 10:48:49;;;;;;;13.03;8.50;;;;;;;;;;5009750;28;20419;-62
2021/09/06 10:51:23;;;;;;;9.80;8.00;;;;;;;;;;5010719;28;20799;-63
2021/09/06 10:53:49;;;;;;;13.53;9.30;;;;;;;;;;5015682;28;20451;-62
2021/09/06 10:56:15;;;;;;;11.00;8.40;;;;;;;;;;5011156;28;20473;-62
2021/09/06 10:58:41;;;;;;;11.33;7.70;;;;;;;;;;5009485;28;20415;-64
2021/09/06 11:01:08;;;;;;;11.23;8.37;;;;;;;;;;5014094;28;20429;-63
2021/09/06 11:03:36;;;;;;;8.70;6.93;;;;;;;;;;5021315;28;20435;-61
2021/09/06 11:06:02;;;;;;;12.00;8.70;;;;;;;;;;5016764;28;20505;-61
2021/09/06 11:08:29;;;;;;;8.73;6.63;;;;;;;;;;5019738;28;20477;-62
2021/09/06 11:10:56;;;;;;;9.93;7.37;;;;;;;;;;5011812;28;20455;-62
2021/09/06 11:13:22;;;;;;;8.53;7.37;;;;;;;;;;5010452;28;21019;-63
2021/09/06 11:15:49;;;;;;;12.40;7.53;;;;;;;;;;5011677;28;20437;-63
2021/09/06 11:18:15;;;;;;;12.00;8.13;;;;;;;;;;5013034;28;20503;-63
2021/09/06 11:20:44;;;;;;;12.50;7.10;;;;;;;;;;5017658;28;20435;-64
2021/09/06 11:23:11;;;;;;;10.60;8.23;;;;;;;;;;5010769;28;20455;-65
2021/09/06 11:25:39;;;;;;;10.00;7.20;;;;;;;;;;5019083;28;20865;-64
2021/09/06 11:28:08;;;;;;;10.37;7.50;;;;;;;;;;5012044;28;20982;-63
2021/09/06 11:30:36;;;;;;;13.23;8.13;;;;;;;;;;5012197;28;20505;-63
2021/09/06 11:33:05;;;;;;;12.40;9.30;;;;;;;;;;5010247;28;20443;-63
2021/09/06 11:35:31;;;;;;;10.30;7.83;;;;;;;;;;4995836;28;20430;-63
2021/09/06 11:37:57;;;;;;;10.60;8.13;;;;;;;;;;5020017;28;20482;-63
2021/09/06 11:40:24;;;;;;;10.40;8.70;;;;;;;;;;5014350;28;20407;-63
2021/09/06 11:42:50;;;;;;;13.30;9.37;;;;;;;;;;5013603;28;20455;-63
2021/09/06 11:45:18;;;;;;;11.93;9.27;;;;;;;;;;5009513;28;20507;-64
2021/09/06 11:47:45;;;;;;;13.30;10.40;;;;;;;;;;5019840;28;20441;-63
2021/09/06 11:50:11;;;;;;;16.30;10.60;;;;;;;;;;5014124;28;20485;-63
2021/09/06 11:52:39;;;;;;;12.90;9.00;;;;;;;;;;5012309;28;20466;-62
2021/09/06 11:55:11;;;;;;;8.23;7.10;;;;;;;;;;5013737;28;20407;-63
2021/09/06 11:57:37;;;;;;;11.70;8.47;;;;;;;;;;5017359;28;20428;-63
2021/09/06 12:00:04;;;;;;;14.23;9.97;;;;;;;;;;5013382;28;20439;-63
2021/09/06 12:02:30;;;;;;;11.33;8.20;;;;;;;;;;5017973;28;20523;-63
2021/09/06 12:05:14;;;;;;;11.70;7.63;;;;;;;;;;5012930;28;20423;-63
2021/09/06 12:07:47;;;;;;;8.30;6.97;;;;;;;;;;5012247;28;20542;-63
2021/09/06 12:10:43;;;;;;;12.03;8.50;;;;;;;;;;5006039;28;20880;-62
2021/09/06 12:13:11;;;;;;;11.60;8.30;;;;;;;;;;4995088;28;20530;-62
2021/09/06 12:15:38;;;;;;;11.30;9.93;;;;;;;;;;5012521;28;20445;-62
2021/09/06 12:18:12;;;;;;;10.67;8.60;;;;;;;;;;5016523;28;20446;-62
2021/09/06 12:20:40;;;;;;;12.87;9.13;;;;;;;;;;5009208;28;20424;-62
2021/09/06 12:23:07;;;;;;;13.83;10.20;;;;;;;;;;5012990;28;20543;-64
2021/09/06 12:25:33;;;;;;;12.27;8.70;;;;;;;;;;5012610;28;20423;-63
2021/09/06 12:28:06;;;;;;;11.53;9.10;;;;;;;;;;5013360;28;20776;-63
2021/09/06 12:30:32;;;;;;;11.50;8.60;;;;;;;;;;4994230;28;20600;-63
2021/09/06 12:32:58;;;;;;;11.10;8.90;;;;;;;;;;5003874;28;20450;-63
2021/09/06 12:35:24;;;;;;;11.10;8.40;;;;;;;;;;5011539;28;20927;-63
2021/09/06 12:37:50;;;;;;;11.67;8.03;;;;;;;;;;5009777;28;20424;-63
2021/09/06 12:40:16;;;;;;;10.10;8.77;;;;;;;;;;5012464;28;20443;-63
2021/09/06 12:42:47;;;;;;;12.70;7.50;;;;;;;;;;5011818;28;20447;-63
2021/09/06 12:45:13;;;;;;;8.63;6.97;;;;;;;;;;5012027;28;20411;-63
2021/09/06 12:47:39;;;;;;;10.00;8.83;;;;;;;;;;5012605;28;21017;-63
2021/09/06 12:50:05;;;;;;;11.80;7.80;;;;;;;;;;5010625;28;20467;-63
2021/09/06 12:52:31;;;;;;;9.53;7.23;;;;;;;;;;5011075;28;20517;-63
2021/09/06 12:54:57;;;;;;;9.23;7.70;;;;;;;;;;5010932;28;20777;-63
2021/09/06 12:57:23;;;;;;;11.10;7.43;;;;;;;;;;5008074;28;20423;-63
2021/09/06 12:59:49;;;;;;;10.10;7.30;;;;;;;;;;5011550;28;20407;-63
2021/09/06 13:02:15;;;;;;;9.33;7.20;;;;;;;;;;5013204;28;20418;-64
2021/09/06 13:04:41;;;;;;;9.00;6.50;;;;;;;;;;5012061;28;20873;-63
2021/09/06 13:07:08;;;;;;;6.63;5.73;;;;;;;;;;5012737;28;20461;-63
2021/09/06 13:09:33;;;;;;;9.03;6.93;;;;;;;;;;5010139;28;20513;-62
2021/09/06 13:12:00;;;;;;;9.67;6.97;;;;;;;;;;5013010;28;20951;-61
2021/09/06 13:14:28;;;;;;;8.80;5.87;;;;;;;;;;5017113;28;20442;-62
2021/09/06 13:16:54;;;;;;;8.70;7.13;;;;;;;;;;5008665;28;20514;-62
2021/09/06 13:19:20;;;;;;;9.37;6.50;;;;;;;;;;5014200;28;20407;-63
2021/09/06 13:21:46;;;;;;;7.83;6.07;;;;;;;;;;5011898;28;20482;-62
2021/09/06 13:24:12;;;;;;;11.23;6.87;;;;;;;;;;5009069;28;20983;-62
2021/09/06 13:26:40;;;;;;;8.90;7.17;;;;;;;;;;5012131;28;20447;-62
2021/09/06 13:29:06;;;;;;;6.93;5.70;;;;;;;;;;5015460;28;20426;-62
2021/09/06 13:31:33;;;;;;;9.70;6.23;;;;;;;;;;5003527;28;20895;-63
2021/09/06 13:33:59;;;;;;;9.43;6.37;;;;;;;;;;5015941;28;20531;-63
2021/09/06 13:36:25;;;;;;;8.27;6.33;;;;;;;;;;5008479;28;20531;-63
2021/09/06 13:38:51;;;;;;;9.43;5.77;;;;;;;;;;5011322;28;20419;-63
2021/09/06 13:41:17;;;;;;;11.70;6.73;;;;;;;;;;5011998;28;20814;-63
2021/09/06 13:43:43;;;;;;;7.77;6.03;;;;;;;;;;5012828;28;20784;-63
2021/09/06 13:46:09;;;;;;;7.47;5.60;;;;;;;;;;5010502;28;20431;-62
2021/09/06 13:48:35;;;;;;;6.43;5.57;;;;;;;;;;5012352;28;20434;-63
2021/09/06 13:51:01;;;;;;;7.70;5.20;;;;;;;;;;5010247;28;21015;-63
2021/09/06 13:53:27;;;;;;;7.93;6.30;;;;;;;;;;5013621;28;20463;-64
2021/09/06 13:55:53;;;;;;;6.80;5.40;;;;;;;;;;5009348;28;20419;-62
2021/09/06 13:58:20;;;;;;;9.33;6.30;;;;;;;;;;5005843;28;20457;-63
2021/09/06 14:00:46;;;;;;;7.87;6.20;;;;;;;;;;5008927;28;20435;-63
2021/09/06 14:03:12;;;;;;;8.53;6.50;;;;;;;;;;5009550;28;20564;-63
2021/09/06 14:05:38;;;;;;;10.40;7.00;;;;;;;;;;5006483;28;20932;-64
2021/09/06 14:08:05;;;;;;;7.83;5.63;;;;;;;;;;5009211;28;20427;-62
2021/09/06 14:10:31;;;;;;;9.00;6.60;;;;;;;;;;5008156;28;20589;-62
2021/09/06 14:12:57;;;;;;;8.43;5.90;;;;;;;;;;5014831;28;20481;-63
2021/09/06 14:15:23;;;;;;;7.97;5.47;;;;;;;;;;5009956;28;20446;-63
2021/09/06 14:17:49;;;;;;;8.87;6.60;;;;;;;;;;5011789;28;20421;-63
2021/09/06 14:20:15;;;;;;;7.70;5.63;;;;;;;;;;5022955;28;20427;-62
2021/09/06 14:22:41;;;;;;;9.33;5.67;;;;;;;;;;5009305;28;20818;-63
2021/09/06 14:25:08;;;;;;;8.40;5.90;;;;;;;;;;5009621;28;20935;-63